createdAt,value
2022-09-04T00:02:21.730Z,5.22
2022-09-04T00:04:52.273Z,5.45
2022-09-04T00:07:27.103Z,9.88
2022-09-04T00:10:16.145Z,8.23
2022-09-04T00:13:09.782Z,6.20
2022-09-04T00:15:44.786Z,5.43
2022-09-04T00:18:30.401Z,6.40
2022-09-04T00:21:15.751Z,7.40
2022-09-04T00:23:52.810Z,5.15
2022-09-04T00:26:36.945Z,5.60
2022-09-04T00:29:13.563Z,7.28
2022-09-04T00:31:48.282Z,4.93
2022-09-04T00:34:32.461Z,6.50
2022-09-04T00:37:06.501Z,6.35
2022-09-04T00:39:45.090Z,8.13
2022-09-04T00:42:35.867Z,8.27
2022-09-04T00:45:41.267Z,8.68
2022-09-04T00:48:25.220Z,12.70
2022-09-04T00:51:16.037Z,9.63
2022-09-04T00:53:52.563Z,9.02
2022-09-04T00:56:53.912Z,7.47
2022-09-04T00:59:56.123Z,9.13
2022-09-04T01:02:50.830Z,7.47
2022-09-04T01:05:45.894Z,11.73
2022-09-04T01:08:35.604Z,9.35
2022-09-04T01:11:27.564Z,10.30
2022-09-04T01:14:10.855Z,12.20
2022-09-04T01:16:53.570Z,10.38
2022-09-04T01:19:35.783Z,11.02
2022-09-04T01:22:21.512Z,14.43
2022-09-04T01:25:18.974Z,10.38
2022-09-04T01:28:08.501Z,26.30
2022-09-04T01:30:47.010Z,11.57
2022-09-04T01:33:37.354Z,12.65
2022-09-04T01:36:27.948Z,16.92
2022-09-04T01:38:59.036Z,17.50
2022-09-04T01:41:39.460Z,11.65
2022-09-04T01:44:09.943Z,12.70
2022-09-04T01:46:50.169Z,11.77
2022-09-04T01:49:37.428Z,12.50
2022-09-04T01:52:26.596Z,14.40
2022-09-04T01:55:00.788Z,13.57
2022-09-04T01:57:59.148Z,13.07
2022-09-04T02:00:33.921Z,13.00
2022-09-04T02:03:22.403Z,16.17
2022-09-04T02:06:09.415Z,18.73
2022-09-04T02:08:44.622Z,18.75
2022-09-04T02:11:20.605Z,15.35
2022-09-04T02:14:17.814Z,16.30
2022-09-04T02:17:04.032Z,16.13
2022-09-04T02:19:52.970Z,20.70
2022-09-04T02:22:29.259Z,22.55
2022-09-04T02:25:11.032Z,18.88
2022-09-04T02:27:59.556Z,15.13
2022-09-04T02:30:33.210Z,20.67
2022-09-04T02:33:21.222Z,15.65
2022-09-04T02:36:06.208Z,21.27
2022-09-04T02:38:52.618Z,16.85
2022-09-04T02:41:42.748Z,18.10
2022-09-04T02:44:17.051Z,18.13
2022-09-04T02:47:07.857Z,16.35
2022-09-04T02:49:55.360Z,19.90
2022-09-04T02:52:47.549Z,16.27
2022-09-04T02:55:45.422Z,18.90
2022-09-04T02:58:39.692Z,15.30
2022-09-04T03:01:31.404Z,15.25
2022-09-04T03:04:13.812Z,20.05
2022-09-04T03:09:20.061Z,20.38
2022-09-04T03:12:14.857Z,21.42
2022-09-04T03:15:00.200Z,19.02
2022-09-04T03:17:44.411Z,18.23
2022-09-04T03:20:25.303Z,16.70
2022-09-04T03:22:59.688Z,19.23
2022-09-04T03:25:40.565Z,15.10
2022-09-04T03:28:13.644Z,16.63
2022-09-04T03:30:42.511Z,20.05
2022-09-04T03:33:27.466Z,17.95
2022-09-04T03:36:08.158Z,14.65
2022-09-04T03:38:43.738Z,16.48
2022-09-04T03:41:30.229Z,16.90
2022-09-04T03:44:00.509Z,18.33
2022-09-04T03:46:49.276Z,16.50
2022-09-04T03:49:34.274Z,19.20
2022-09-04T03:52:11.154Z,17.73
2022-09-04T03:54:55.023Z,20.42
2022-09-04T03:57:52.869Z,16.48
2022-09-04T04:00:22.605Z,18.00
2022-09-04T04:02:59.321Z,16.45
2022-09-04T04:05:37.961Z,19.27
2022-09-04T04:08:27.704Z,16.35
2022-09-04T04:11:01.174Z,18.58
2022-09-04T04:13:53.353Z,18.13
2022-09-04T04:16:40.611Z,16.08
2022-09-04T04:19:46.986Z,20.83
2022-09-04T04:22:29.746Z,17.98
2022-09-04T04:25:16.445Z,20.05
2022-09-04T04:28:09.197Z,16.20
2022-09-04T04:30:52.572Z,20.00
2022-09-04T04:33:42.404Z,16.58
2022-09-04T04:36:45.610Z,18.70
2022-09-04T04:39:32.590Z,20.67
2022-09-04T04:42:12.253Z,18.73
2022-09-04T04:45:23.338Z,21.45
2022-09-04T04:48:12.428Z,19.45
2022-09-04T04:50:47.685Z,20.45
2022-09-04T04:53:25.956Z,18.58
2022-09-04T04:56:32.914Z,19.42
2022-09-04T04:59:20.693Z,21.30
2022-09-04T05:01:56.202Z,18.52
2022-09-04T05:04:31.705Z,19.98
2022-09-04T05:07:22.215Z,21.17
2022-09-04T05:10:07.080Z,21.45
2022-09-04T05:13:03.478Z,20.77
2022-09-04T05:16:08.415Z,19.67
2022-09-04T05:18:48.682Z,20.88
2022-09-04T05:21:43.477Z,19.05
2022-09-04T05:24:38.690Z,20.88
2022-09-04T05:27:31.029Z,19.80
2022-09-04T05:30:13.007Z,22.90
2022-09-04T05:32:54.832Z,19.98
2022-09-04T05:35:36.377Z,20.80
2022-09-04T05:38:36.729Z,18.67
2022-09-04T05:41:15.458Z,19.25
2022-09-04T05:44:07.014Z,21.23
2022-09-04T05:46:52.297Z,21.35
2022-09-04T05:49:44.464Z,21.60
2022-09-04T05:52:42.410Z,23.77
2022-09-04T05:55:32.892Z,19.67
2022-09-04T05:58:34.390Z,22.73
2022-09-04T06:01:15.558Z,23.77
2022-09-04T06:03:43.782Z,20.70
2022-09-04T06:06:15.198Z,21.98
2022-09-04T06:08:56.813Z,22.52
2022-09-04T06:11:42.777Z,21.38
2022-09-04T06:14:31.484Z,23.27
2022-09-04T06:17:28.906Z,20.98
2022-09-04T06:19:59.100Z,22.25
2022-09-04T06:22:40.729Z,23.45
2022-09-04T06:25:25.560Z,33.15
2022-09-04T06:28:31.382Z,19.48
2022-09-04T06:31:20.138Z,20.80
2022-09-04T06:34:00.882Z,21.92
2022-09-04T06:36:42.656Z,20.63
2022-09-04T06:39:31.606Z,25.65
2022-09-04T06:42:17.367Z,23.85
2022-09-04T06:44:44.802Z,23.23
2022-09-04T06:47:27.399Z,22.27
2022-09-04T06:50:30.212Z,19.58
2022-09-04T06:53:04.151Z,20.33
2022-09-04T06:55:45.791Z,20.70
2022-09-04T06:58:27.993Z,21.90
2022-09-04T07:01:21.624Z,25.42
2022-09-04T07:03:56.707Z,20.02
2022-09-04T07:06:48.645Z,18.58
2022-09-04T07:09:28.150Z,20.45
2022-09-04T07:12:33.585Z,20.15
2022-09-04T07:15:40.308Z,19.48
2022-09-04T07:18:34.866Z,20.75
2022-09-04T07:21:15.389Z,19.40
2022-09-04T07:23:48.810Z,18.88
2022-09-04T07:26:33.406Z,21.27
2022-09-04T07:29:25.748Z,21.92
2022-09-04T07:32:18.812Z,23.08
2022-09-04T07:34:56.349Z,20.10
2022-09-04T07:37:58.424Z,23.27
2022-09-04T07:40:40.486Z,18.50
2022-09-04T07:43:16.020Z,18.15
2022-09-04T07:45:47.565Z,18.88
2022-09-04T07:48:33.348Z,18.65
2022-09-04T07:51:10.212Z,20.02
2022-09-04T07:54:11.518Z,28.80
2022-09-04T07:57:05.929Z,17.90
2022-09-04T07:59:59.088Z,20.77
2022-09-04T08:02:58.533Z,18.27
2022-09-04T08:05:53.066Z,20.25
2022-09-04T08:08:53.238Z,18.90
2022-09-04T08:11:49.938Z,21.65
2022-09-04T08:14:32.448Z,18.38
2022-09-04T08:17:25.252Z,18.10
2022-09-04T08:20:04.622Z,18.48
2022-09-04T08:22:34.875Z,20.70
2022-09-04T08:25:30.803Z,21.73
2022-09-04T08:28:01.177Z,21.45
2022-09-04T08:30:36.801Z,22.42
2022-09-04T08:33:44.991Z,20.60
2022-09-04T08:36:32.606Z,19.92
2022-09-04T08:39:07.160Z,19.20
2022-09-04T08:41:57.993Z,19.05
2022-09-04T08:44:36.379Z,20.02
2022-09-04T08:47:24.095Z,20.50
2022-09-04T08:50:16.970Z,19.92
2022-09-04T08:53:06.075Z,19.48
2022-09-04T08:56:10.105Z,20.15
2022-09-04T08:59:07.270Z,20.15
2022-09-04T09:02:19.423Z,22.20
2022-09-04T09:05:01.883Z,25.30
2022-09-04T09:08:00.391Z,19.30
2022-09-04T09:10:55.423Z,18.80
2022-09-04T09:13:22.859Z,18.08
2022-09-04T09:16:14.110Z,15.57
2022-09-04T09:19:09.009Z,16.13
2022-09-04T09:21:49.325Z,17.25
2022-09-04T09:24:25.905Z,15.52
2022-09-04T09:27:11.757Z,15.50
2022-09-04T09:29:51.906Z,15.82
2022-09-04T09:32:52.184Z,13.73
2022-09-04T09:35:55.693Z,16.83
2022-09-04T09:39:00.406Z,15.93
2022-09-04T09:42:00.840Z,12.00
2022-09-04T09:44:49.686Z,13.38
2022-09-04T09:47:54.644Z,15.05
2022-09-04T09:50:47.812Z,14.95
2022-09-04T09:53:28.945Z,14.60
2022-09-04T09:56:17.126Z,11.77
2022-09-04T09:59:12.442Z,12.68
2022-09-04T10:02:20.078Z,11.10
2022-09-04T10:05:26.117Z,9.85
2022-09-04T10:08:05.607Z,11.63
2022-09-04T10:11:12.026Z,10.93
2022-09-04T10:13:58.924Z,11.68
2022-09-04T10:16:58.206Z,10.15
2022-09-04T10:20:08.789Z,9.82
2022-09-04T10:22:43.104Z,9.95
2022-09-04T10:25:37.700Z,8.60
2022-09-04T10:28:47.451Z,10.23
2022-09-04T10:31:45.642Z,8.23
2022-09-04T10:34:48.406Z,6.63
2022-09-04T10:38:09.738Z,5.05
2022-09-04T10:40:51.309Z,7.60
2022-09-04T10:43:39.405Z,8.32
2022-09-04T10:46:25.222Z,5.15
2022-09-04T10:49:39.030Z,6.80
2022-09-04T10:52:33.189Z,5.50
2022-09-04T10:55:17.634Z,6.90
2022-09-04T10:57:53.512Z,4.72
2022-09-04T11:00:23.744Z,6.03
2022-09-04T11:03:22.103Z,6.57
2022-09-04T11:06:15.803Z,5.97
2022-09-04T11:09:01.723Z,4.75
2022-09-04T11:12:09.437Z,4.68
2022-09-04T11:14:57.161Z,3.80
2022-09-04T11:17:46.129Z,3.90
2022-09-04T11:20:36.414Z,5.20
2022-09-04T11:23:25.520Z,3.47
2022-09-04T11:26:08.285Z,2.72
2022-09-04T11:28:57.101Z,5.13
2022-09-04T11:31:44.733Z,3.30
2022-09-04T11:34:36.856Z,2.53
2022-09-04T11:37:43.491Z,3.15
2022-09-04T11:40:35.739Z,5.15
2022-09-04T11:43:23.606Z,2.15
2022-09-04T11:46:00.584Z,6.28
2022-09-04T11:48:53.571Z,2.50
2022-09-04T11:51:48.930Z,8.35
2022-09-04T11:54:35.068Z,2.70
2022-09-04T11:57:12.419Z,4.07
2022-09-04T11:59:59.032Z,2.70
2022-09-04T12:02:38.601Z,2.13
2022-09-04T12:05:40.410Z,3.42
2022-09-04T12:11:11.911Z,4.35
2022-09-04T12:14:02.035Z,3.95
2022-09-04T12:16:44.273Z,3.63
2022-09-04T12:19:16.136Z,5.85
2022-09-04T12:22:36.458Z,2.55
2022-09-04T12:25:19.284Z,6.07
2022-09-04T12:27:49.722Z,4.00
2022-09-04T12:30:55.403Z,2.72
2022-09-04T12:34:03.466Z,2.83
2022-09-04T12:36:59.339Z,3.38
2022-09-04T12:39:49.256Z,3.75
2022-09-04T12:42:25.598Z,3.85
2022-09-04T12:45:09.963Z,1.83
2022-09-04T12:47:41.658Z,4.30
2022-09-04T12:50:35.562Z,2.20
2022-09-04T12:53:14.996Z,3.70
2022-09-04T12:56:00.610Z,1.92
2022-09-04T12:58:47.894Z,4.72
2022-09-04T13:01:21.376Z,4.03
2022-09-04T13:03:59.841Z,3.33
2022-09-04T13:06:48.222Z,2.75
2022-09-04T13:09:33.555Z,2.67
2022-09-04T13:12:14.086Z,1.58
2022-09-04T13:14:57.547Z,1.38
2022-09-04T13:17:43.478Z,2.33
2022-09-04T13:20:24.435Z,2.47
2022-09-04T13:23:04.503Z,2.80
2022-09-04T13:25:55.130Z,4.20
2022-09-04T13:28:50.846Z,3.33
2022-09-04T13:31:21.379Z,1.90
2022-09-04T13:34:07.655Z,1.80
2022-09-04T13:36:46.228Z,2.17
2022-09-04T13:39:36.059Z,2.15
2022-09-04T13:42:12.381Z,3.67
2022-09-04T13:45:00.226Z,3.88
2022-09-04T13:47:43.317Z,4.05
2022-09-04T13:50:22.489Z,6.57
2022-09-04T13:53:22.974Z,4.60
2022-09-04T13:55:54.560Z,1.73
2022-09-04T14:00:59.320Z,1.73
2022-09-04T14:03:39.786Z,2.85
2022-09-04T14:06:12.922Z,1.70
2022-09-04T14:08:43.181Z,3.67
2022-09-04T14:11:32.184Z,2.03
2022-09-04T14:14:41.335Z,2.65
2022-09-04T14:17:10.437Z,2.00
2022-09-04T14:20:19.441Z,1.80
2022-09-04T14:23:11.553Z,3.53
2022-09-04T14:26:00.801Z,3.90
2022-09-04T14:28:40.441Z,5.68
2022-09-04T14:31:22.685Z,1.45
2022-09-04T14:34:27.780Z,2.53
2022-09-04T14:37:10.351Z,3.95
2022-09-04T14:39:48.951Z,5.57
2022-09-04T14:42:42.535Z,5.93
2022-09-04T14:45:30.817Z,3.58
2022-09-04T14:48:05.310Z,1.33
2022-09-04T14:50:45.522Z,6.30
2022-09-04T14:53:22.512Z,1.85
2022-09-04T14:56:13.203Z,3.08
2022-09-04T14:58:50.140Z,1.92
2022-09-04T15:01:21.088Z,1.63
2022-09-04T15:04:13.054Z,2.63
2022-09-04T15:07:10.316Z,2.72
2022-09-04T15:09:42.023Z,4.53
2022-09-04T15:12:24.767Z,2.22
2022-09-04T15:15:31.602Z,2.88
2022-09-04T15:18:15.895Z,2.47
2022-09-04T15:20:57.181Z,1.83
2022-09-04T15:23:46.819Z,4.18
2022-09-04T15:26:37.608Z,2.83
2022-09-04T15:29:27.246Z,3.13
2022-09-04T15:32:05.071Z,2.65
2022-09-04T15:34:38.146Z,3.55
2022-09-04T15:37:19.921Z,3.97
2022-09-04T15:42:47.436Z,3.95
2022-09-04T15:45:24.148Z,2.08
2022-09-04T15:48:03.574Z,3.50
2022-09-04T15:50:36.409Z,2.83
2022-09-04T15:53:27.242Z,3.28
2022-09-04T15:56:09.288Z,3.93
2022-09-04T15:58:47.194Z,2.97
2022-09-04T16:01:20.172Z,1.55
2022-09-04T16:04:30.119Z,1.88
2022-09-04T16:07:23.856Z,2.55
2022-09-04T16:10:00.158Z,3.55
2022-09-04T16:12:33.455Z,1.95
2022-09-04T16:15:17.402Z,3.40
2022-09-04T16:17:54.516Z,1.98
2022-09-04T16:20:35.398Z,3.33
2022-09-04T16:23:08.651Z,2.57
2022-09-04T16:25:41.737Z,1.98
2022-09-04T16:28:33.118Z,2.10
2022-09-04T16:31:12.481Z,1.90
2022-09-04T16:33:51.682Z,2.70
2022-09-04T16:36:26.084Z,1.13
2022-09-04T16:39:06.421Z,1.80
2022-09-04T16:41:44.507Z,1.75
2022-09-04T16:44:31.104Z,1.63
2022-09-04T16:47:24.454Z,2.33
2022-09-04T16:50:13.190Z,2.05
2022-09-04T16:53:12.898Z,1.20
2022-09-04T16:55:48.029Z,2.10
2022-09-04T16:58:40.360Z,1.65
2022-09-04T17:01:16.308Z,2.10
2022-09-04T17:04:13.869Z,2.67
2022-09-04T17:07:05.172Z,1.52
2022-09-04T17:09:49.661Z,3.38
2022-09-04T17:12:20.110Z,4.57
2022-09-04T17:15:08.586Z,1.20
2022-09-04T17:17:41.192Z,2.03
2022-09-04T17:20:11.095Z,1.30
2022-09-04T17:28:55.228Z,2.35
2022-09-04T17:29:18.805Z,3.28
2022-09-04T17:29:34.894Z,2.83
2022-09-04T17:34:04.298Z,3.47
2022-09-04T17:40:35.641Z,6.22
2022-09-04T17:40:53.289Z,2.05
2022-09-04T17:41:37.880Z,3.97
2022-09-04T17:44:31.806Z,5.63
2022-09-04T17:47:03.763Z,1.40
2022-09-04T17:49:35.105Z,3.90
2022-09-04T17:52:09.090Z,11.50
2022-09-04T17:54:48.889Z,2.88
2022-09-04T17:57:32.307Z,2.30
2022-09-04T18:00:06.421Z,4.90
2022-09-04T18:02:55.494Z,1.88
2022-09-04T18:05:52.915Z,1.65
2022-09-04T18:08:35.674Z,1.70
2022-09-04T18:11:21.595Z,3.30
2022-09-04T18:14:11.211Z,3.05
2022-09-04T18:16:39.466Z,7.45
2022-09-04T18:19:28.205Z,1.67
2022-09-04T18:22:22.088Z,4.32
2022-09-04T18:25:16.061Z,1.70
2022-09-04T18:28:11.631Z,6.68
2022-09-04T18:37:12.942Z,4.53
2022-09-04T18:37:15.979Z,5.95
2022-09-04T18:37:45.759Z,3.70
2022-09-04T18:40:16.602Z,4.90
2022-09-04T18:50:24.435Z,2.47
2022-09-04T18:50:31.189Z,6.38
2022-09-04T18:50:43.189Z,2.20
2022-09-04T18:51:44.559Z,3.13
2022-09-04T18:54:24.791Z,9.60
2022-09-04T18:57:01.289Z,4.60
2022-09-04T18:59:43.646Z,1.92
2022-09-04T19:02:22.657Z,1.98
2022-09-04T19:04:58.021Z,3.97
2022-09-04T19:07:51.054Z,2.65
2022-09-04T19:10:35.367Z,2.22
2022-09-04T19:13:28.653Z,2.65
2022-09-04T19:16:08.412Z,2.65
2022-09-04T19:18:41.634Z,5.25
2022-09-04T19:21:14.135Z,2.72
2022-09-04T19:23:49.140Z,3.90
2022-09-04T19:26:39.605Z,2.00
2022-09-04T19:29:19.051Z,2.95
2022-09-04T19:32:00.509Z,3.00
2022-09-04T19:34:43.138Z,5.18
2022-09-04T19:38:07.874Z,4.22
2022-09-04T19:45:53.598Z,1.83
2022-09-04T19:46:11.433Z,2.03
2022-09-04T19:46:29.798Z,2.40
2022-09-04T19:50:13.003Z,4.10
2022-09-04T19:53:31.249Z,4.03
2022-09-04T19:55:23.586Z,1.83
2022-09-04T19:57:52.578Z,2.28
2022-09-04T20:00:43.174Z,3.38
2022-09-04T20:03:29.243Z,3.88
2022-09-04T20:06:21.104Z,3.85
2022-09-04T20:08:56.421Z,3.05
2022-09-04T20:11:36.532Z,1.73
2022-09-04T20:14:14.369Z,5.43
2022-09-04T20:17:04.776Z,1.38
2022-09-04T20:19:52.021Z,5.80
2022-09-04T20:22:45.366Z,3.03
2022-09-04T20:25:30.843Z,5.97
2022-09-04T20:28:12.108Z,2.50
2022-09-04T20:30:43.707Z,2.93
2022-09-04T20:33:26.289Z,4.70
2022-09-04T20:36:15.436Z,3.92
2022-09-04T20:38:54.662Z,5.65
2022-09-04T20:41:45.904Z,2.80
2022-09-04T20:44:16.096Z,5.70
2022-09-04T20:52:49.679Z,2.78
2022-09-04T20:52:50.732Z,6.65
2022-09-04T20:53:09.552Z,2.45
2022-09-04T20:55:46.632Z,2.88
2022-09-04T21:03:05.179Z,5.45
2022-09-04T21:03:20.360Z,3.15
2022-09-04T21:04:56.765Z,11.73
2022-09-04T21:07:40.733Z,3.28
2022-09-04T21:10:20.203Z,3.97
2022-09-04T21:13:14.400Z,5.13
2022-09-04T21:15:48.198Z,5.15
2022-09-04T21:18:44.995Z,2.47
2022-09-04T21:21:50.833Z,2.65
2022-09-04T21:24:30.317Z,2.75
2022-09-04T21:27:29.067Z,3.22
2022-09-04T21:30:15.971Z,2.08
2022-09-04T21:33:28.098Z,2.90
2022-09-04T21:36:25.383Z,2.25
2022-09-04T21:39:11.394Z,1.77
2022-09-04T21:41:44.743Z,3.17
2022-09-04T21:44:41.836Z,5.93
2022-09-04T21:47:31.139Z,1.88
2022-09-04T21:50:23.018Z,2.25
2022-09-04T21:52:59.478Z,2.55
2022-09-04T22:00:44.540Z,2.10
2022-09-04T22:02:41.533Z,5.15
2022-09-04T22:02:54.362Z,2.45
2022-09-04T22:05:34.077Z,1.33
2022-09-04T22:13:31.370Z,3.35
2022-09-04T22:13:38.065Z,3.00
2022-09-04T22:14:43.753Z,4.15
2022-09-04T22:17:28.001Z,1.67
2022-09-04T22:20:28.006Z,2.17
2022-09-04T22:23:24.851Z,3.55
2022-09-04T22:26:23.943Z,2.38
2022-09-04T22:28:55.619Z,3.65
2022-09-04T22:31:24.264Z,3.60
2022-09-04T22:34:15.476Z,2.55
2022-09-04T22:37:17.392Z,4.75
2022-09-04T22:40:04.019Z,3.03
2022-09-04T22:42:43.486Z,2.25
2022-09-04T22:45:38.715Z,4.50
2022-09-04T22:48:12.195Z,4.45
2022-09-04T22:51:05.325Z,4.15
2022-09-04T22:53:44.810Z,4.82
2022-09-04T22:56:25.057Z,2.28
2022-09-04T22:59:26.723Z,1.77
2022-09-04T23:02:00.054Z,1.40
2022-09-04T23:05:17.030Z,3.65
2022-09-04T23:13:44.593Z,1.67
2022-09-04T23:14:01.028Z,1.35
2022-09-04T23:14:05.536Z,5.93
2022-09-04T23:17:01.512Z,1.95
2022-09-04T23:23:12.537Z,2.83
2022-09-04T23:26:50.901Z,4.07
2022-09-04T23:26:57.284Z,6.03
2022-09-04T23:29:41.313Z,2.67
2022-09-04T23:32:26.455Z,2.80
2022-09-04T23:35:21.573Z,3.65
2022-09-04T23:38:11.975Z,3.75
2022-09-04T23:40:43.481Z,2.10
2022-09-04T23:43:32.219Z,4.10
2022-09-04T23:46:18.189Z,2.42
2022-09-04T23:49:15.650Z,5.05
2022-09-04T23:52:04.169Z,5.65
2022-09-04T23:54:50.460Z,2.83
2022-09-04T23:57:36.592Z,4.57
